Time;durP1;ratioP1;P1;durP2;ratioP2;P2;SDS_P1;SDS_P2;PMS_P1;PMS_P2;Temp;Humidity;BMP_temperature;BMP_pressure;BME280_temperature;BME280_humidity;BME280_pressure;Samples;Min_cycle;Max_cycle;Signal;HPM_P1;HPM_P2
2023/06/10 00:00:12;;;;;;;;;;;;;;;20.77;76.02;99145.84;4493119;31;34827;-84
2023/06/10 00:02:41;;;;;;;;;;;;;;;20.84;75.64;99143.66;4489116;31;34013;-82
2023/06/10 00:05:10;;;;;;;;;;;;;;;20.85;75.57;99145.34;4482928;32;34225;-81
2023/06/10 00:07:41;;;;;;;;;;;;;;;20.82;75.87;99140.28;4477499;32;33681;-80
2023/06/10 00:10:10;;;;;;;;;;;;;;;20.80;75.97;99143.03;4477400;32;34168;-79
2023/06/10 00:12:41;;;;;;;;;;;;;;;20.63;76.64;99141.47;4477427;32;34100;-82
2023/06/10 00:15:11;;;;;;;;;;;;;;;20.45;77.21;99139.97;4481752;32;34161;-82
2023/06/10 00:17:40;;;;;;;;;;;;;;;20.39;77.57;99135.94;4477348;32;33888;-80
2023/06/10 00:20:12;;;;;;;;;;;;;;;20.46;77.84;99139.87;4477270;32;34692;-81
2023/06/10 00:22:45;;;;;;;;;;;;;;;20.36;78.35;99138.72;4477201;32;33388;-81
2023/06/10 00:25:16;;;;;;;;;;;;;;;20.43;78.12;99137.41;4477670;32;35349;-83
2023/06/10 00:27:47;;;;;;;;;;;;;;;20.46;77.78;99137.22;4482890;32;33656;-80
2023/06/10 00:30:15;;;;;;;;;;;;;;;20.33;78.79;99135.44;4477325;32;34113;-82
2023/06/10 00:32:44;;;;;;;;;;;;;;;20.50;77.44;99134.41;4481064;31;32681;-81
2023/06/10 00:35:13;;;;;;;;;;;;;;;20.22;78.86;99125.56;4493255;31;33792;-82
2023/06/10 00:37:42;;;;;;;;;;;;;;;20.25;78.91;99128.03;4497946;31;34781;-82
2023/06/10 00:40:11;;;;;;;;;;;;;;;20.20;79.31;99132.75;4493100;31;34138;-82
2023/06/10 00:42:40;;;;;;;;;;;;;;;20.22;79.36;99138.72;4486200;31;33429;-82
2023/06/10 00:45:10;;;;;;;;;;;;;;;20.18;79.68;99132.00;4485230;31;35062;-83
2023/06/10 00:47:39;;;;;;;;;;;;;;;20.26;79.17;99148.16;4489795;31;33997;-82
2023/06/10 00:50:08;;;;;;;;;;;;;;;20.42;78.96;99143.62;4493174;31;34629;-82
2023/06/10 00:52:37;;;;;;;;;;;;;;;20.37;79.02;99139.56;4486113;31;33344;-82
2023/06/10 00:55:07;;;;;;;;;;;;;;;20.44;78.57;99147.03;4482683;31;34295;-82
2023/06/10 00:57:37;;;;;;;;;;;;;;;20.36;78.78;99137.88;4485278;31;34033;-82
2023/06/10 01:00:08;;;;;;;;;;;;;;;20.36;78.90;99146.63;4484920;31;34167;-82
2023/06/10 01:02:38;;;;;;;;;;;;;;;20.36;78.99;99144.00;4483825;31;32771;-83
2023/06/10 01:05:08;;;;;;;;;;;;;;;20.37;78.95;99147.47;4482241;31;33546;-83
2023/06/10 01:07:39;;;;;;;;;;;;;;;20.39;78.93;99145.59;4480984;31;33974;-83
2023/06/10 01:10:11;;;;;;;;;;;;;;;20.30;79.46;99144.41;4481124;31;33869;-83
2023/06/10 01:12:42;;;;;;;;;;;;;;;20.37;79.58;99153.63;4481101;31;32374;-82
2023/06/10 01:15:12;;;;;;;;;;;;;;;20.31;79.56;99146.06;4479494;31;34093;-82
2023/06/10 01:17:55;;;;;;;;;;;;;;;20.12;79.83;99146.34;4484786;31;33580;-83
2023/06/10 01:20:26;;;;;;;;;;;;;;;20.25;80.06;99143.84;4481632;31;34159;-82
2023/06/10 01:22:57;;;;;;;;;;;;;;;20.41;79.36;99144.56;4482069;31;32776;-81
2023/06/10 01:25:28;;;;;;;;;;;;;;;20.39;79.50;99148.22;4489317;31;34464;-83
2023/06/10 01:28:03;;;;;;;;;;;;;;;20.48;79.40;99157.34;4481224;31;34836;-82
2023/06/10 01:30:37;;;;;;;;;;;;;;;20.45;79.87;99156.59;4483616;31;34192;-82
2023/06/10 01:33:08;;;;;;;;;;;;;;;20.56;79.09;99145.44;4480197;31;33586;-83
2023/06/10 01:35:37;;;;;;;;;;;;;;;20.46;79.42;99150.41;4487978;31;34293;-84
2023/06/10 01:38:07;;;;;;;;;;;;;;;20.48;79.65;99149.47;4477586;31;34680;-84
2023/06/10 01:40:36;;;;;;;;;;;;;;;20.54;79.28;99142.03;4488572;31;34167;-83
2023/06/10 01:43:05;;;;;;;;;;;;;;;20.66;79.06;99145.69;4488516;31;32751;-82
2023/06/10 01:45:34;;;;;;;;;;;;;;;20.79;77.52;99149.22;4476759;31;34610;-82
2023/06/10 01:48:02;;;;;;;;;;;;;;;20.75;77.10;99142.47;4481683;31;34565;-83
2023/06/10 01:50:31;;;;;;;;;;;;;;;20.60;77.70;99152.19;4476976;31;34629;-82
2023/06/10 01:53:00;;;;;;;;;;;;;;;20.45;78.80;99148.69;4490244;31;33387;-82
2023/06/10 01:55:30;;;;;;;;;;;;;;;20.32;79.82;99150.41;4476509;31;33352;-82
2023/06/10 01:57:59;;;;;;;;;;;;;;;20.40;79.73;99145.50;4480440;31;33800;-83
2023/06/10 02:00:28;;;;;;;;;;;;;;;20.39;79.10;99154.37;4474521;31;34936;-83
2023/06/10 02:02:57;;;;;;;;;;;;;;;20.39;79.60;99141.19;4478184;31;33576;-83
2023/06/10 02:05:26;;;;;;;;;;;;;;;20.34;78.79;99140.59;4485998;31;34115;-83
2023/06/10 02:07:55;;;;;;;;;;;;;;;20.41;78.96;99136.66;4474651;32;33897;-83
2023/06/10 02:10:23;;;;;;;;;;;;;;;20.40;78.86;99142.88;4490837;31;34580;-82
2023/06/10 02:12:53;;;;;;;;;;;;;;;20.37;78.95;99136.94;4489764;31;33628;-83
2023/06/10 02:15:22;;;;;;;;;;;;;;;20.42;78.53;99135.72;4486893;31;33003;-83
2023/06/10 02:17:51;;;;;;;;;;;;;;;20.48;78.24;99136.28;4490239;31;33019;-82
2023/06/10 02:20:20;;;;;;;;;;;;;;;20.60;77.51;99143.44;4495607;31;33670;-82
2023/06/10 02:22:49;;;;;;;;;;;;;;;20.43;78.36;99145.31;4476192;31;33085;-83
2023/06/10 02:25:18;;;;;;;;;;;;;;;20.50;77.39;99145.78;4489467;31;34617;-84
2023/06/10 02:27:46;;;;;;;;;;;;;;;20.45;77.44;99151.34;4490238;31;34135;-83
2023/06/10 02:30:17;;;;;;;;;;;;;;;20.40;76.89;99150.78;4489689;31;33533;-84
2023/06/10 02:32:47;;;;;;;;;;;;;;;20.27;78.47;99149.84;4476455;31;34238;-82
2023/06/10 02:35:17;;;;;;;;;;;;;;;20.60;75.83;99146.06;4473731;31;34674;-82
2023/06/10 02:37:45;;;;;;;;;;;;;;;20.15;78.10;99140.94;4474452;31;33909;-83
2023/06/10 02:40:15;;;;;;;;;;;;;;;19.99;77.88;99140.16;4483740;31;33021;-83
2023/06/10 02:42:44;;;;;;;;;;;;;;;20.18;77.60;99138.09;4494971;31;33775;-82
2023/06/10 02:45:14;;;;;;;;;;;;;;;19.94;78.55;99147.50;4473557;31;35440;-83
2023/06/10 02:47:46;;;;;;;;;;;;;;;20.08;77.85;99146.63;4482073;31;33992;-83
2023/06/10 02:50:16;;;;;;;;;;;;;;;20.11;77.68;99146.47;4489426;31;34871;-83
2023/06/10 02:52:46;;;;;;;;;;;;;;;19.93;79.04;99151.03;4495518;31;34318;-83
2023/06/10 02:55:15;;;;;;;;;;;;;;;19.97;78.92;99153.41;4492121;31;33868;-83
2023/06/10 02:57:46;;;;;;;;;;;;;;;20.03;78.13;99155.69;4479523;31;34284;-84
2023/06/10 03:00:16;;;;;;;;;;;;;;;20.12;77.83;99151.62;4488004;31;34615;-83
2023/06/10 03:02:46;;;;;;;;;;;;;;;20.07;78.25;99151.06;4489462;31;33611;-84
2023/06/10 03:05:16;;;;;;;;;;;;;;;20.12;77.75;99150.78;4496728;31;34065;-84
2023/06/10 03:07:47;;;;;;;;;;;;;;;20.21;77.65;99156.34;4487016;31;35992;-83
2023/06/10 03:10:16;;;;;;;;;;;;;;;20.23;77.72;99154.47;4487306;31;33572;-83
2023/06/10 03:12:45;;;;;;;;;;;;;;;20.21;76.83;99155.50;4480625;31;33479;-84
2023/06/10 03:15:14;;;;;;;;;;;;;;;20.21;76.42;99160.75;4492592;31;34704;-83
2023/06/10 03:17:43;;;;;;;;;;;;;;;20.00;77.51;99155.00;4475432;31;33685;-83
2023/06/10 03:20:15;;;;;;;;;;;;;;;19.77;78.79;99156.41;4481152;31;32735;-83
2023/06/10 03:22:44;;;;;;;;;;;;;;;19.96;78.39;99157.00;4482036;31;33238;-84
2023/06/10 03:25:14;;;;;;;;;;;;;;;20.10;77.95;99157.94;4484654;31;33634;-84
2023/06/10 03:27:44;;;;;;;;;;;;;;;20.30;76.59;99160.19;4483673;31;34376;-84
2023/06/10 03:30:13;;;;;;;;;;;;;;;20.06;76.97;99154.66;4480171;31;34235;-83
2023/06/10 03:32:43;;;;;;;;;;;;;;;20.18;76.93;99160.97;4475244;31;33933;-84
2023/06/10 03:35:12;;;;;;;;;;;;;;;20.09;77.37;99159.72;4474934;31;34583;-84
2023/06/10 03:37:42;;;;;;;;;;;;;;;20.15;77.17;99167.25;4482305;31;33830;-83
2023/06/10 03:40:11;;;;;;;;;;;;;;;19.95;77.97;99165.81;4476036;31;34172;-84
2023/06/10 03:42:40;;;;;;;;;;;;;;;20.14;77.89;99165.56;4478595;31;33726;-84
2023/06/10 03:45:10;;;;;;;;;;;;;;;20.18;77.85;99167.06;4480403;31;33792;-83
2023/06/10 03:47:40;;;;;;;;;;;;;;;20.25;77.57;99170.19;4474252;31;34574;-83
2023/06/10 03:50:10;;;;;;;;;;;;;;;20.28;77.85;99169.13;4482971;31;33426;-83
2023/06/10 03:52:41;;;;;;;;;;;;;;;20.28;78.13;99172.63;4476540;31;33548;-84
2023/06/10 03:55:11;;;;;;;;;;;;;;;20.41;77.54;99176.16;4481303;31;34335;-84
2023/06/10 03:57:42;;;;;;;;;;;;;;;20.35;78.19;99173.94;4484383;31;34372;-83
2023/06/10 04:00:12;;;;;;;;;;;;;;;20.50;77.61;99166.03;4482466;31;34107;-85
2023/06/10 04:02:45;;;;;;;;;;;;;;;20.51;77.59;99165.06;4477863;31;32817;-84
2023/06/10 04:05:16;;;;;;;;;;;;;;;20.62;77.82;99166.12;4479816;31;33876;-84
2023/06/10 04:07:48;;;;;;;;;;;;;;;20.62;78.68;99166.12;4481714;31;33851;-84
2023/06/10 04:10:17;;;;;;;;;;;;;;;20.92;77.72;99159.00;4475301;31;33577;-84
2023/06/10 04:12:46;;;;;;;;;;;;;;;21.06;77.47;99158.94;4490163;31;32898;-83
2023/06/10 04:15:15;;;;;;;;;;;;;;;21.04;78.31;99152.91;4487642;31;33942;-84
2023/06/10 04:17:43;;;;;;;;;;;;;;;21.29;75.72;99154.81;4476249;31;32875;-84
2023/06/10 04:20:13;;;;;;;;;;;;;;;21.14;78.70;99151.38;4483283;31;34803;-85
2023/06/10 04:22:44;;;;;;;;;;;;;;;21.89;75.81;99150.81;4485968;31;33539;-84
2023/06/10 04:25:17;;;;;;;;;;;;;;;23.23;68.66;99154.59;4482606;31;33043;-85
2023/06/10 04:27:45;;;;;;;;;;;;;;;23.95;67.43;99151.84;4481695;31;33933;-84
2023/06/10 04:30:15;;;;;;;;;;;;;;;24.78;65.85;99155.94;4476209;31;34318;-85
2023/06/10 04:32:43;;;;;;;;;;;;;;;25.62;62.84;99154.31;4485935;31;33788;-85
2023/06/10 04:35:13;;;;;;;;;;;;;;;26.00;61.88;99150.25;4495901;31;35447;-84
2023/06/10 04:37:42;;;;;;;;;;;;;;;26.54;60.14;99151.75;4479242;31;35018;-85
2023/06/10 04:40:11;;;;;;;;;;;;;;;26.56;59.32;99147.16;4487775;31;33457;-85
2023/06/10 04:42:42;;;;;;;;;;;;;;;27.03;58.35;99165.16;4475850;31;33155;-84
2023/06/10 04:45:11;;;;;;;;;;;;;;;27.54;54.10;99152.59;4488731;31;34665;-84
2023/06/10 04:47:41;;;;;;;;;;;;;;;27.91;51.89;99152.72;4478318;31;34065;-85
2023/06/10 04:50:11;;;;;;;;;;;;;;;28.06;52.02;99153.94;4477312;31;33870;-84
2023/06/10 04:52:41;;;;;;;;;;;;;;;28.39;50.86;99149.03;4490748;31;34118;-84
2023/06/10 04:55:10;;;;;;;;;;;;;;;28.27;51.02;99156.41;4489897;31;33704;-84
2023/06/10 04:57:39;;;;;;;;;;;;;;;28.56;50.51;99155.44;4496627;31;34859;-84
2023/06/10 05:00:10;;;;;;;;;;;;;;;28.76;49.82;99148.16;4475321;31;33227;-84
2023/06/10 05:02:39;;;;;;;;;;;;;;;28.84;48.83;99152.75;4476049;31;34199;-84
2023/06/10 05:05:08;;;;;;;;;;;;;;;28.83;49.56;99149.25;4487080;31;33970;-84
2023/06/10 05:07:37;;;;;;;;;;;;;;;29.07;48.49;99154.03;4483103;31;35405;-85
2023/06/10 05:10:06;;;;;;;;;;;;;;;26.94;52.97;99158.88;4474643;31;33052;-84
2023/06/10 05:12:35;;;;;;;;;;;;;;;27.34;51.82;99163.25;4474548;31;33770;-84
2023/06/10 05:15:07;;;;;;;;;;;;;;;25.86;56.23;99162.06;4484177;31;33536;-83
2023/06/10 05:17:39;;;;;;;;;;;;;;;25.86;55.49;99163.88;4474866;31;34458;-84
2023/06/10 05:20:09;;;;;;;;;;;;;;;25.92;56.74;99163.34;4487697;31;34605;-83
2023/06/10 05:22:37;;;;;;;;;;;;;;;27.08;53.72;99170.09;4477918;31;33057;-84
2023/06/10 05:25:07;;;;;;;;;;;;;;;25.11;58.03;99166.44;4479573;31;33223;-83
2023/06/10 05:27:36;;;;;;;;;;;;;;;25.46;57.85;99168.03;4479097;31;34856;-84
2023/06/10 05:30:07;;;;;;;;;;;;;;;24.65;61.01;99172.00;4491231;31;32546;-83
2023/06/10 05:32:35;;;;;;;;;;;;;;;23.93;63.30;99183.72;4466239;31;33068;-84
2023/06/10 05:35:06;;;;;;;;;;;;;;;24.27;62.42;99173.16;4485379;31;33463;-84
2023/06/10 05:37:36;;;;;;;;;;;;;;;23.67;64.69;99172.44;4487888;31;34439;-84
2023/06/10 05:40:06;;;;;;;;;;;;;;;23.45;65.85;99173.22;4485004;31;32985;-83
2023/06/10 05:42:35;;;;;;;;;;;;;;;22.91;67.71;99174.50;4484477;31;33205;-83
2023/06/10 05:45:04;;;;;;;;;;;;;;;22.41;68.86;99171.00;4481866;31;34672;-84
2023/06/10 05:47:33;;;;;;;;;;;;;;;22.43;69.08;99165.63;4476554;31;33566;-82
2023/06/10 05:50:02;;;;;;;;;;;;;;;22.07;70.50;99170.69;4480022;31;32235;-84
2023/06/10 05:52:32;;;;;;;;;;;;;;;21.70;72.27;99170.56;4482501;31;33395;-84
2023/06/10 05:55:01;;;;;;;;;;;;;;;22.05;70.06;99169.09;4478639;31;33811;-82
2023/06/10 05:57:30;;;;;;;;;;;;;;;21.99;69.83;99172.16;4483696;31;34011;-83
2023/06/10 05:59:58;;;;;;;;;;;;;;;22.02;69.73;99172.78;4486422;31;33423;-82
2023/06/10 06:02:27;;;;;;;;;;;;;;;22.33;69.25;99168.91;4485816;31;32871;-82
2023/06/10 06:04:56;;;;;;;;;;;;;;;22.62;69.66;99175.75;4477195;31;34838;-83
2023/06/10 06:07:25;;;;;;;;;;;;;;;22.21;69.97;99169.75;4473925;31;33926;-82
2023/06/10 06:09:55;;;;;;;;;;;;;;;22.58;68.81;99172.47;4480790;31;34315;-82
2023/06/10 06:12:24;;;;;;;;;;;;;;;22.58;69.51;99175.09;4484711;31;33010;-83
2023/06/10 06:14:53;;;;;;;;;;;;;;;22.63;70.92;99172.97;4486898;31;33953;-82
2023/06/10 06:17:22;;;;;;;;;;;;;;;23.20;67.83;99176.84;4473723;31;33993;-83
2023/06/10 06:19:51;;;;;;;;;;;;;;;23.00;65.50;99173.00;4485436;31;34427;-82
2023/06/10 06:22:21;;;;;;;;;;;;;;;22.64;68.74;99176.44;4467742;31;32433;-83
2023/06/10 06:24:51;;;;;;;;;;;;;;;23.08;67.25;99180.38;4485049;31;33980;-82
2023/06/10 06:27:21;;;;;;;;;;;;;;;22.50;67.97;99178.28;4473678;31;34056;-82
2023/06/10 06:29:51;;;;;;;;;;;;;;;22.50;68.73;99180.09;4487298;31;34337;-82
2023/06/10 06:32:20;;;;;;;;;;;;;;;22.89;67.02;99183.50;4479512;31;33091;-83
2023/06/10 06:34:49;;;;;;;;;;;;;;;23.36;65.66;99185.31;4480872;31;33659;-82
2023/06/10 06:37:18;;;;;;;;;;;;;;;23.13;67.61;99187.03;4490711;31;34321;-84
2023/06/10 06:39:46;;;;;;;;;;;;;;;23.00;67.81;99187.09;4485374;31;33545;-84
2023/06/10 06:42:16;;;;;;;;;;;;;;;23.32;65.15;99189.16;4485830;31;32963;-84
2023/06/10 06:44:47;;;;;;;;;;;;;;;23.51;64.88;99188.66;4475784;31;33736;-82
2023/06/10 06:47:17;;;;;;;;;;;;;;;23.37;65.06;99187.03;4484902;31;33137;-82
2023/06/10 06:49:46;;;;;;;;;;;;;;;22.87;65.50;99191.53;4481710;31;35073;-84
2023/06/10 06:52:15;;;;;;;;;;;;;;;23.25;65.45;99193.22;4470908;31;32106;-83
2023/06/10 06:54:44;;;;;;;;;;;;;;;23.48;65.52;99188.03;4488984;31;33815;-83
2023/06/10 06:57:14;;;;;;;;;;;;;;;23.22;65.79;99196.09;4492135;31;34854;-84
2023/06/10 06:59:42;;;;;;;;;;;;;;;22.73;68.73;99189.84;4480635;31;34391;-82
2023/06/10 07:02:13;;;;;;;;;;;;;;;22.94;67.66;99190.12;4478760;31;33216;-82
2023/06/10 07:04:41;;;;;;;;;;;;;;;23.02;65.45;99188.75;4479957;31;33980;-83
2023/06/10 07:07:11;;;;;;;;;;;;;;;22.86;66.39;99189.84;4470951;31;35369;-84
2023/06/10 07:09:39;;;;;;;;;;;;;;;23.37;64.20;99194.13;4475673;31;33028;-83
2023/06/10 07:12:09;;;;;;;;;;;;;;;23.59;64.46;99186.25;4480542;31;33265;-84
2023/06/10 07:14:37;;;;;;;;;;;;;;;23.82;63.08;99187.22;4486445;31;33868;-84
2023/06/10 07:17:06;;;;;;;;;;;;;;;23.57;64.30;99193.47;4484127;31;33754;-83
2023/06/10 07:19:37;;;;;;;;;;;;;;;23.38;63.63;99194.00;4484899;31;33704;-83
2023/06/10 07:22:06;;;;;;;;;;;;;;;23.80;62.19;99193.56;4483294;31;33307;-82
2023/06/10 07:24:34;;;;;;;;;;;;;;;22.95;63.49;99197.12;4482035;31;34085;-83
2023/06/10 07:27:06;;;;;;;;;;;;;;;23.04;63.42;99192.97;4478106;31;34049;-84
2023/06/10 07:29:36;;;;;;;;;;;;;;;22.93;64.35;99204.31;4478805;31;34756;-84
2023/06/10 07:32:05;;;;;;;;;;;;;;;22.58;64.53;99198.91;4481986;31;33162;-83
2023/06/10 07:34:34;;;;;;;;;;;;;;;22.74;66.37;99201.31;4482865;31;33628;-83
2023/06/10 07:37:04;;;;;;;;;;;;;;;22.46;66.83;99205.03;4481363;31;33759;-84
2023/06/10 07:39:33;;;;;;;;;;;;;;;22.69;66.29;99200.75;4489014;31;33790;-83
2023/06/10 07:42:01;;;;;;;;;;;;;;;22.73;67.11;99208.37;4491283;31;32839;-84
2023/06/10 07:44:30;;;;;;;;;;;;;;;22.23;67.28;99204.00;4482753;31;34561;-83
2023/06/10 07:46:59;;;;;;;;;;;;;;;21.74;69.51;99203.69;4485499;31;34852;-84
2023/06/10 07:49:28;;;;;;;;;;;;;;;22.70;66.99;99199.81;4476878;31;34452;-82
2023/06/10 07:51:58;;;;;;;;;;;;;;;22.74;66.17;99204.78;4488727;31;33765;-83
2023/06/10 07:54:28;;;;;;;;;;;;;;;22.58;67.22;99201.53;4479798;31;34515;-82
2023/06/10 07:56:57;;;;;;;;;;;;;;;22.95;64.91;99205.06;4482237;31;33726;-84
2023/06/10 07:59:26;;;;;;;;;;;;;;;22.56;66.51;99200.78;4481355;31;33649;-84
2023/06/10 08:01:55;;;;;;;;;;;;;;;23.13;65.03;99210.00;4478641;31;32934;-82
2023/06/10 08:04:24;;;;;;;;;;;;;;;22.75;64.96;99209.09;4482727;31;33959;-83
2023/06/10 08:06:53;;;;;;;;;;;;;;;22.71;65.62;99207.66;4477703;31;34816;-83
2023/06/10 08:09:22;;;;;;;;;;;;;;;22.09;67.70;99202.28;4481028;31;35317;-82
2023/06/10 08:11:53;;;;;;;;;;;;;;;22.88;64.83;99202.94;4478414;31;32794;-82
2023/06/10 08:14:22;;;;;;;;;;;;;;;22.99;64.05;99208.34;4482947;31;33921;-82
2023/06/10 08:16:51;;;;;;;;;;;;;;;22.69;64.11;99201.63;4490612;31;34569;-83
2023/06/10 08:19:20;;;;;;;;;;;;;;;22.03;66.15;99208.81;4478430;31;34121;-83
2023/06/10 08:21:49;;;;;;;;;;;;;;;22.24;66.41;99208.34;4477780;31;33548;-83
2023/06/10 08:24:18;;;;;;;;;;;;;;;22.16;64.43;99201.75;4488212;31;33602;-82
2023/06/10 08:26:48;;;;;;;;;;;;;;;22.44;66.67;99201.66;4488091;31;33761;-83
2023/06/10 08:29:18;;;;;;;;;;;;;;;23.05;65.92;99202.63;4479215;31;33561;-82
2023/06/10 08:31:47;;;;;;;;;;;;;;;23.36;63.86;99195.06;4485606;31;32665;-83
2023/06/10 08:34:16;;;;;;;;;;;;;;;23.17;62.76;99195.56;4482738;31;33987;-84
2023/06/10 08:36:45;;;;;;;;;;;;;;;23.49;61.15;99200.31;4494454;31;34244;-82
2023/06/10 08:39:13;;;;;;;;;;;;;;;23.38;61.38;99201.94;4485924;31;33917;-83
2023/06/10 08:41:43;;;;;;;;;;;;;;;23.89;60.28;99192.03;4485161;31;33266;-84
2023/06/10 08:44:13;;;;;;;;;;;;;;;23.59;59.94;99201.31;4481525;31;34166;-84
2023/06/10 08:46:43;;;;;;;;;;;;;;;23.57;61.04;99189.97;4480815;31;34254;-83
2023/06/10 08:49:12;;;;;;;;;;;;;;;23.85;60.04;99192.28;4487220;31;33668;-82
2023/06/10 08:51:41;;;;;;;;;;;;;;;23.61;60.99;99188.81;4482541;31;33242;-84
2023/06/10 08:54:12;;;;;;;;;;;;;;;23.39;61.72;99181.62;4480951;31;34435;-82
2023/06/10 08:56:41;;;;;;;;;;;;;;;22.93;60.73;99187.59;4479807;31;33153;-82
2023/06/10 08:59:09;;;;;;;;;;;;;;;23.54;59.29;99182.28;4485395;31;33751;-83
2023/06/10 09:01:38;;;;;;;;;;;;;;;24.13;56.19;99176.06;4480426;31;33489;-82
2023/06/10 09:04:08;;;;;;;;;;;;;;;24.10;56.73;99171.00;4480702;31;34063;-82
2023/06/10 09:06:37;;;;;;;;;;;;;;;24.01;56.15;99167.25;4478815;31;34285;-83
2023/06/10 09:09:06;;;;;;;;;;;;;;;24.53;53.77;99170.31;4484706;31;34049;-82
2023/06/10 09:11:35;;;;;;;;;;;;;;;24.25;56.38;99169.78;4485976;31;34209;-84
2023/06/10 09:14:04;;;;;;;;;;;;;;;24.67;53.78;99165.59;4482255;31;33890;-82
2023/06/10 09:16:32;;;;;;;;;;;;;;;24.77;54.23;99157.75;4481602;31;33992;-83
2023/06/10 09:19:07;;;;;;;;;;;;;;;24.77;55.28;99162.22;4482188;31;33872;-83
2023/06/10 09:21:38;;;;;;;;;;;;;;;24.82;53.68;99154.72;4484327;31;33489;-82
2023/06/10 09:24:07;;;;;;;;;;;;;;;25.04;51.72;99157.31;4486011;31;34338;-84
2023/06/10 09:26:36;;;;;;;;;;;;;;;24.78;53.89;99151.47;4485123;31;34802;-83
2023/06/10 09:29:05;;;;;;;;;;;;;;;24.66;52.98;99155.94;4484104;31;34805;-84
2023/06/10 09:31:34;;;;;;;;;;;;;;;24.85;53.50;99150.00;4491833;31;33405;-83
2023/06/10 09:34:07;;;;;;;;;;;;;;;25.40;52.49;99144.66;4495013;31;34005;-84
2023/06/10 09:36:38;;;;;;;;;;;;;;;25.63;52.55;99144.53;4483792;31;34802;-83
2023/06/10 09:39:14;;;;;;;;;;;;;;;25.84;50.05;99142.72;4483323;31;33816;-82
2023/06/10 09:41:43;;;;;;;;;;;;;;;25.95;50.17;99148.00;4485890;31;33216;-83
2023/06/10 09:44:14;;;;;;;;;;;;;;;25.01;50.87;99144.28;4489764;31;34368;-83
2023/06/10 09:46:46;;;;;;;;;;;;;;;26.01;49.21;99146.59;4480409;31;32321;-81
2023/06/10 09:49:15;;;;;;;;;;;;;;;25.93;50.52;99143.78;4480817;31;34762;-84
2023/06/10 09:51:51;;;;;;;;;;;;;;;26.49;47.06;99145.13;4485257;31;32812;-84
2023/06/10 09:54:21;;;;;;;;;;;;;;;26.55;48.91;99139.28;4483263;31;33833;-84
2023/06/10 09:56:50;;;;;;;;;;;;;;;25.93;48.43;99141.97;4481915;31;34228;-83
2023/06/10 09:59:25;;;;;;;;;;;;;;;25.28;50.44;99140.37;4485104;31;34119;-83
2023/06/10 10:01:55;;;;;;;;;;;;;;;25.97;49.12;99134.56;4480414;31;33100;-82
2023/06/10 10:04:24;;;;;;;;;;;;;;;26.18;47.33;99134.53;4484640;31;34571;-84
2023/06/10 10:06:54;;;;;;;;;;;;;;;26.48;47.73;99136.31;4482740;31;33267;-85
2023/06/10 10:09:23;;;;;;;;;;;;;;;25.63;48.71;99140.06;4483553;31;33743;-81
2023/06/10 10:11:52;;;;;;;;;;;;;;;26.50;46.46;99134.34;4486513;31;33140;-84
2023/06/10 10:14:21;;;;;;;;;;;;;;;26.21;47.64;99142.22;4488074;31;33810;-85
2023/06/10 10:16:50;;;;;;;;;;;;;;;26.73;44.20;99132.34;4475596;31;33948;-84
2023/06/10 10:19:21;;;;;;;;;;;;;;;26.62;47.93;99142.25;4487836;31;33898;-83
2023/06/10 10:21:51;;;;;;;;;;;;;;;26.33;46.91;99132.34;4490973;31;32683;-83
2023/06/10 10:24:21;;;;;;;;;;;;;;;26.11;47.11;99138.69;4488937;31;33579;-83
2023/06/10 10:26:51;;;;;;;;;;;;;;;25.87;48.15;99134.50;4494026;31;33536;-84
2023/06/10 10:29:21;;;;;;;;;;;;;;;26.28;48.71;99143.38;4489693;31;34685;-85
2023/06/10 10:31:51;;;;;;;;;;;;;;;25.70;51.68;99145.69;4487189;31;34427;-84
2023/06/10 10:34:20;;;;;;;;;;;;;;;25.71;50.98;99147.41;4479363;31;33250;-83
2023/06/10 10:36:49;;;;;;;;;;;;;;;25.66;52.53;99147.78;4485480;31;34641;-83
2023/06/10 10:39:18;;;;;;;;;;;;;;;25.62;51.16;99140.19;4483217;31;33627;-83
2023/06/10 10:41:48;;;;;;;;;;;;;;;25.67;51.58;99138.00;4495714;31;32745;-83
2023/06/10 10:44:17;;;;;;;;;;;;;;;24.47;57.47;99132.69;4492504;31;33563;-83
2023/06/10 10:46:49;;;;;;;;;;;;;;;24.45;57.99;99131.09;4491754;31;34575;-84
2023/06/10 10:49:18;;;;;;;;;;;;;;;23.82;59.38;99128.94;4492441;31;34052;-83
2023/06/10 10:51:57;;;;;;;;;;;;;;;24.16;59.15;99128.97;4497376;31;33352;-84
2023/06/10 10:54:29;;;;;;;;;;;;;;;24.68;57.55;99132.78;4497472;31;34121;-85
2023/06/10 10:57:12;;;;;;;;;;;;;;;24.94;56.30;99129.84;4492995;31;33667;-83
2023/06/10 10:59:44;;;;;;;;;;;;;;;24.35;57.56;99124.84;4493087;31;34418;-83
2023/06/10 11:02:16;;;;;;;;;;;;;;;24.67;56.48;99130.28;4492421;31;33906;-82
2023/06/10 11:04:48;;;;;;;;;;;;;;;24.17;57.17;99122.69;4496592;31;34766;-84
2023/06/10 11:07:21;;;;;;;;;;;;;;;24.97;55.66;99118.97;4493817;31;34834;-84
2023/06/10 11:10:00;;;;;;;;;;;;;;;24.85;54.53;99119.97;4476403;32;35022;-83
2023/06/10 11:12:56;;;;;;;;;;;;;;;25.25;53.77;99114.91;4476390;32;34322;-83
2023/06/10 11:15:27;;;;;;;;;;;;;;;24.75;55.21;99109.28;4423399;32;34636;-83
2023/06/10 11:18:08;;;;;;;;;;;;;;;25.27;54.18;99112.97;4411820;32;34174;-84
2023/06/10 11:20:52;;;;;;;;;;;;;;;25.57;53.73;99102.56;4418050;32;34348;-83
2023/06/10 11:23:39;;;;;;;;;;;;;;;25.69;52.98;99104.19;4424856;32;33819;-84
2023/06/10 11:26:18;;;;;;;;;;;;;;;26.55;52.30;99107.38;4414028;32;33555;-83
2023/06/10 11:29:03;;;;;;;;;;;;;;;26.93;49.52;99108.44;4414429;32;34235;-83
2023/06/10 11:31:33;;;;;;;;;;;;;;;26.90;49.05;99114.03;4414122;32;34429;-85
2023/06/10 11:34:04;;;;;;;;;;;;;;;26.79;48.97;99110.50;4414602;32;32745;-84
2023/06/10 11:36:34;;;;;;;;;;;;;;;27.02;48.59;99113.75;4419025;32;33454;-83
2023/06/10 11:39:03;;;;;;;;;;;;;;;27.50;47.73;99101.44;4399046;32;35034;-84
2023/06/10 11:41:33;;;;;;;;;;;;;;;27.94;47.98;99092.94;4398960;32;33800;-84
2023/06/10 11:44:02;;;;;;;;;;;;;;;28.41;45.67;99092.84;4398305;32;33284;-84
2023/06/10 11:46:31;;;;;;;;;;;;;;;28.46;46.30;99086.13;4403455;32;33954;-86
2023/06/10 11:49:02;;;;;;;;;;;;;;;28.78;44.80;99084.78;4407808;32;33870;-84
2023/06/10 11:51:33;;;;;;;;;;;;;;;29.24;44.42;99084.75;4433733;32;34118;-83
2023/06/10 11:54:02;;;;;;;;;;;;;;;28.58;43.25;99085.91;4447590;32;33998;-85
2023/06/10 11:56:31;;;;;;;;;;;;;;;29.05;42.02;99083.03;4447299;32;33823;-85
2023/06/10 11:59:04;;;;;;;;;;;;;;;29.43;40.70;99083.69;4460856;32;34145;-83
2023/06/10 12:01:34;;;;;;;;;;;;;;;28.65;43.99;99087.81;4454779;32;33954;-85
2023/06/10 12:04:08;;;;;;;;;;;;;;;28.71;43.76;99073.03;4452874;32;32968;-84
2023/06/10 12:06:44;;;;;;;;;;;;;;;29.33;43.17;99068.63;4449275;32;32938;-85
2023/06/10 12:09:16;;;;;;;;;;;;;;;29.88;42.87;99072.81;4450212;32;34114;-84
2023/06/10 12:11:51;;;;;;;;;;;;;;;30.67;40.96;99072.66;4456410;32;34013;-84
2023/06/10 12:14:38;;;;;;;;;;;;;;;30.21;39.78;99073.00;4455404;32;34866;-83
2023/06/10 12:17:07;;;;;;;;;;;;;;;30.28;38.88;99065.19;4452869;32;33681;-84
2023/06/10 12:19:40;;;;;;;;;;;;;;;30.61;39.02;99076.81;4447194;32;33784;-83
2023/06/10 12:22:12;;;;;;;;;;;;;;;29.53;40.24;99066.59;4450300;32;33863;-86
2023/06/10 12:24:45;;;;;;;;;;;;;;;28.68;42.00;99078.66;4455273;32;33425;-85
2023/06/10 12:27:19;;;;;;;;;;;;;;;27.98;44.83;99073.84;4454035;32;32029;-84
2023/06/10 12:29:53;;;;;;;;;;;;;;;26.77;47.64;99067.25;4453741;32;32881;-82
2023/06/10 12:32:26;;;;;;;;;;;;;;;26.80;48.71;99072.28;4454299;32;34149;-83
2023/06/10 12:35:05;;;;;;;;;;;;;;;26.63;47.96;99057.00;4452340;32;32958;-84
2023/06/10 12:37:34;;;;;;;;;;;;;;;27.34;46.34;99062.06;4431868;31;1103176;-84
2023/06/10 12:40:08;;;;;;;;;;;;;;;27.70;46.14;99058.75;4483873;31;35160;-84
2023/06/10 12:42:37;;;;;;;;;;;;;;;27.86;46.17;99056.34;4486943;31;32719;-85
2023/06/10 12:45:08;;;;;;;;;;;;;;;27.80;45.94;99048.91;4483315;31;32902;-84
2023/06/10 12:47:39;;;;;;;;;;;;;;;28.13;45.22;99044.03;4469711;31;35267;-83
2023/06/10 12:50:12;;;;;;;;;;;;;;;28.70;42.87;99044.66;4486527;31;33651;-83
2023/06/10 12:52:42;;;;;;;;;;;;;;;29.27;39.96;99037.16;4478748;31;34725;-83
2023/06/10 12:55:11;;;;;;;;;;;;;;;29.55;41.62;99039.69;4486742;31;32913;-84
2023/06/10 12:57:48;;;;;;;;;;;;;;;29.28;41.35;99025.47;4485419;31;34496;-83
2023/06/10 13:00:18;;;;;;;;;;;;;;;28.91;41.72;99029.16;4487271;31;33848;-84
2023/06/10 13:02:46;;;;;;;;;;;;;;;29.05;40.07;99024.28;4477077;31;34151;-82